sensor_id;sensor_type;location;lat;lon;timestamp;pressure;altitude;pressure_sealevel;temperature;humidity
75505;BME280;64085;54.974;73.410;2023-04-01T00:01:28;102505.38;;;-1.78;41.76
75505;BME280;64085;54.974;73.410;2023-04-01T00:03:54;102496.84;;;-1.82;41.85
75505;BME280;64085;54.974;73.410;2023-04-01T00:06:21;102488.53;;;-1.87;42.15
75505;BME280;64085;54.974;73.410;2023-04-01T00:08:47;102496.19;;;-1.77;41.87
75505;BME280;64085;54.974;73.410;2023-04-01T00:11:14;102454.53;;;-2.21;41.82
75505;BME280;64085;54.974;73.410;2023-04-01T00:13:40;102496.91;;;-1.95;42.65
75505;BME280;64085;54.974;73.410;2023-04-01T00:16:07;102501.72;;;-1.97;43.03
75505;BME280;64085;54.974;73.410;2023-04-01T00:18:33;102488.63;;;-2.00;42.72
75505;BME280;64085;54.974;73.410;2023-04-01T00:20:59;102491.69;;;-1.90;41.85
75505;BME280;64085;54.974;73.410;2023-04-01T00:23:26;102468.53;;;-2.24;42.63
75505;BME280;64085;54.974;73.410;2023-04-01T00:25:51;102485.47;;;-1.97;42.45
75505;BME280;64085;54.974;73.410;2023-04-01T00:28:19;102496.41;;;-2.17;43.51
75505;BME280;64085;54.974;73.410;2023-04-01T00:30:48;102504.34;;;-2.15;43.73
75505;BME280;64085;54.974;73.410;2023-04-01T00:33:13;102484.50;;;-1.78;42.12
75505;BME280;64085;54.974;73.410;2023-04-01T00:35:40;102513.44;;;-1.65;42.54
75505;BME280;64085;54.974;73.410;2023-04-01T00:38:06;102523.53;;;-1.85;43.44
75505;BME280;64085;54.974;73.410;2023-04-01T00:40:35;102510.22;;;-1.87;42.99
75505;BME280;64085;54.974;73.410;2023-04-01T00:43:01;102512.78;;;-1.10;42.04
75505;BME280;64085;54.974;73.410;2023-04-01T00:45:39;102504.50;;;-0.54;40.37
75505;BME280;64085;54.974;73.410;2023-04-01T00:48:19;102509.91;;;-0.36;40.19
75505;BME280;64085;54.974;73.410;2023-04-01T00:50:54;102495.47;;;0.01;38.14
75505;BME280;64085;54.974;73.410;2023-04-01T00:53:21;102511.03;;;1.47;35.70
75505;BME280;64085;54.974;73.410;2023-04-01T00:55:54;102482.28;;;1.04;35.86
75505;BME280;64085;54.974;73.410;2023-04-01T00:58:23;102521.47;;;1.90;34.49
75505;BME280;64085;54.974;73.410;2023-04-01T01:00:51;102502.09;;;2.49;33.71
75505;BME280;64085;54.974;73.410;2023-04-01T01:03:17;102501.44;;;4.45;30.88
75505;BME280;64085;54.974;73.410;2023-04-01T01:08:52;102515.31;;;3.85;31.38
75505;BME280;64085;54.974;73.410;2023-04-01T01:11:44;102517.91;;;4.77;29.13
75505;BME280;64085;54.974;73.410;2023-04-01T01:14:24;102449.31;;;5.62;27.85
75505;BME280;64085;54.974;73.410;2023-04-01T01:17:02;102506.59;;;5.43;27.74
75505;BME280;64085;54.974;73.410;2023-04-01T01:36:36;102492.66;;;7.24;25.58
75505;BME280;64085;54.974;73.410;2023-04-01T01:39:06;102503.50;;;7.75;24.74
75505;BME280;64085;54.974;73.410;2023-04-01T01:41:35;102498.44;;;7.02;25.31
75505;BME280;64085;54.974;73.410;2023-04-01T01:44:03;102503.09;;;7.97;23.90
75505;BME280;64085;54.974;73.410;2023-04-01T01:46:31;102517.72;;;8.47;22.79
75505;BME280;64085;54.974;73.410;2023-04-01T01:48:57;102506.19;;;10.28;21.63
75505;BME280;64085;54.974;73.410;2023-04-01T01:51:26;102520.59;;;11.27;19.68
75505;BME280;64085;54.974;73.410;2023-04-01T01:53:53;102509.53;;;10.95;20.71
75505;BME280;64085;54.974;73.410;2023-04-01T01:56:21;102518.66;;;11.55;19.03
75505;BME280;64085;54.974;73.410;2023-04-01T01:58:51;102521.44;;;11.55;19.23
75505;BME280;64085;54.974;73.410;2023-04-01T02:01:24;102522.13;;;11.75;19.21
75505;BME280;64085;54.974;73.410;2023-04-01T02:03:52;102524.28;;;11.50;19.29
75505;BME280;64085;54.974;73.410;2023-04-01T02:06:21;102519.06;;;11.35;20.17
75505;BME280;64085;54.974;73.410;2023-04-01T02:11:19;102521.00;;;14.00;17.44
75505;BME280;64085;54.974;73.410;2023-04-01T02:13:53;102517.25;;;15.93;16.35
75505;BME280;64085;54.974;73.410;2023-04-01T02:16:49;102520.25;;;19.04;14.05
75505;BME280;64085;54.974;73.410;2023-04-01T02:19:18;102533.28;;;17.22;14.68
75505;BME280;64085;54.974;73.410;2023-04-01T02:21:51;102515.41;;;17.35;14.13
75505;BME280;64085;54.974;73.410;2023-04-01T02:24:19;102532.09;;;16.15;14.59
75505;BME280;64085;54.974;73.410;2023-04-01T02:26:48;102538.50;;;15.21;15.40
75505;BME280;64085;54.974;73.410;2023-04-01T02:29:18;102529.72;;;14.33;16.92
75505;BME280;64085;54.974;73.410;2023-04-01T02:31:45;102519.44;;;14.51;15.52
75505;BME280;64085;54.974;73.410;2023-04-01T02:34:11;102535.91;;;15.25;15.93
75505;BME280;64085;54.974;73.410;2023-04-01T02:36:38;102539.94;;;17.17;14.41
75505;BME280;64085;54.974;73.410;2023-04-01T02:39:05;102525.41;;;16.07;14.83
75505;BME280;64085;54.974;73.410;2023-04-01T02:41:31;102516.31;;;16.40;15.00
75505;BME280;64085;54.974;73.410;2023-04-01T02:43:57;102501.19;;;18.25;13.51
75505;BME280;64085;54.974;73.410;2023-04-01T02:46:24;102517.72;;;16.46;13.59
75505;BME280;64085;54.974;73.410;2023-04-01T02:48:50;102514.59;;;18.20;13.05
75505;BME280;64085;54.974;73.410;2023-04-01T02:51:16;102532.69;;;20.68;11.53
75505;BME280;64085;54.974;73.410;2023-04-01T02:53:41;102540.94;;;18.07;13.49
75505;BME280;64085;54.974;73.410;2023-04-01T02:56:07;102464.88;;;18.57;12.42
75505;BME280;64085;54.974;73.410;2023-04-01T02:58:33;102554.19;;;16.20;14.04
75505;BME280;64085;54.974;73.410;2023-04-01T03:00:58;102563.47;;;17.16;13.74
75505;BME280;64085;54.974;73.410;2023-04-01T03:03:24;102535.72;;;19.57;12.42
75505;BME280;64085;54.974;73.410;2023-04-01T03:05:50;102563.34;;;20.22;11.97
75505;BME280;64085;54.974;73.410;2023-04-01T03:08:16;102578.53;;;20.91;11.11
75505;BME280;64085;54.974;73.410;2023-04-01T03:10:41;102555.81;;;18.47;12.99
75505;BME280;64085;54.974;73.410;2023-04-01T03:13:07;102545.81;;;19.30;12.77
75505;BME280;64085;54.974;73.410;2023-04-01T03:15:33;102567.53;;;22.43;10.50
75505;BME280;64085;54.974;73.410;2023-04-01T03:17:58;102574.63;;;20.41;11.66
75505;BME280;64085;54.974;73.410;2023-04-01T03:20:24;102568.09;;;22.26;10.89
75505;BME280;64085;54.974;73.410;2023-04-01T03:22:50;102570.19;;;20.05;12.06
75505;BME280;64085;54.974;73.410;2023-04-01T03:25:15;102559.22;;;21.74;10.96
75505;BME280;64085;54.974;73.410;2023-04-01T03:27:41;102578.75;;;22.96;10.10
75505;BME280;64085;54.974;73.410;2023-04-01T03:30:07;102583.88;;;24.05;9.36
75505;BME280;64085;54.974;73.410;2023-04-01T03:32:33;102585.88;;;24.67;9.14
75505;BME280;64085;54.974;73.410;2023-04-01T03:34:58;102584.56;;;23.51;9.52
75505;BME280;64085;54.974;73.410;2023-04-01T03:37:24;102586.72;;;24.75;9.15
75505;BME280;64085;54.974;73.410;2023-04-01T03:39:50;102585.25;;;20.32;11.43
75505;BME280;64085;54.974;73.410;2023-04-01T03:42:16;102546.28;;;22.49;10.35
75505;BME280;64085;54.974;73.410;2023-04-01T03:44:42;102560.72;;;25.85;8.43
75505;BME280;64085;54.974;73.410;2023-04-01T03:47:07;102588.78;;;23.64;9.88
75505;BME280;64085;54.974;73.410;2023-04-01T03:49:34;102595.69;;;24.94;8.99
75505;BME280;64085;54.974;73.410;2023-04-01T03:52:00;102607.97;;;26.62;7.94
75505;BME280;64085;54.974;73.410;2023-04-01T03:54:26;102596.81;;;24.10;8.76
75505;BME280;64085;54.974;73.410;2023-04-01T03:56:51;102593.47;;;23.16;9.66
75505;BME280;64085;54.974;73.410;2023-04-01T03:59:17;102605.81;;;24.30;9.68
75505;BME280;64085;54.974;73.410;2023-04-01T04:01:43;102605.44;;;28.56;7.27
75505;BME280;64085;54.974;73.410;2023-04-01T04:04:12;102638.84;;;28.48;6.98
75505;BME280;64085;54.974;73.410;2023-04-01T04:06:40;102614.28;;;24.26;9.51
75505;BME280;64085;54.974;73.410;2023-04-01T04:09:06;102597.00;;;26.72;7.96
75505;BME280;64085;54.974;73.410;2023-04-01T04:11:32;102595.91;;;26.41;7.73
75505;BME280;64085;54.974;73.410;2023-04-01T04:13:58;102615.22;;;25.24;8.82
75505;BME280;64085;54.974;73.410;2023-04-01T04:16:24;102623.75;;;28.93;6.95
75505;BME280;64085;54.974;73.410;2023-04-01T04:18:50;102606.28;;;29.17;6.80
75505;BME280;64085;54.974;73.410;2023-04-01T04:21:16;102619.78;;;26.25;8.11
75505;BME280;64085;54.974;73.410;2023-04-01T04:23:43;102612.66;;;28.98;6.80
75505;BME280;64085;54.974;73.410;2023-04-01T04:26:13;102623.66;;;31.99;5.43
75505;BME280;64085;54.974;73.410;2023-04-01T04:28:40;102614.34;;;29.26;6.42
75505;BME280;64085;54.974;73.410;2023-04-01T04:31:06;102610.25;;;30.05;6.47
75505;BME280;64085;54.974;73.410;2023-04-01T04:33:33;102618.97;;;26.25;7.65
75505;BME280;64085;54.974;73.410;2023-04-01T04:36:00;102609.84;;;31.29;5.43
75505;BME280;64085;54.974;73.410;2023-04-01T04:38:26;102594.91;;;30.42;5.88
75505;BME280;64085;54.974;73.410;2023-04-01T04:40:52;102618.16;;;29.43;6.08
75505;BME280;64085;54.974;73.410;2023-04-01T04:43:18;102620.59;;;31.57;5.29
75505;BME280;64085;54.974;73.410;2023-04-01T04:45:45;102624.25;;;28.80;6.72
75505;BME280;64085;54.974;73.410;2023-04-01T04:48:12;102619.41;;;30.19;5.73
75505;BME280;64085;54.974;73.410;2023-04-01T04:50:42;102627.22;;;30.98;5.05
75505;BME280;64085;54.974;73.410;2023-04-01T04:53:12;102622.28;;;30.59;5.44
75505;BME280;64085;54.974;73.410;2023-04-01T04:55:42;102624.16;;;31.45;5.38
75505;BME280;64085;54.974;73.410;2023-04-01T04:58:08;102627.28;;;29.61;6.28
75505;BME280;64085;54.974;73.410;2023-04-01T05:00:33;102620.69;;;29.64;5.77
75505;BME280;64085;54.974;73.410;2023-04-01T05:02:59;102600.47;;;27.15;7.29
75505;BME280;64085;54.974;73.410;2023-04-01T05:05:25;102618.47;;;27.57;6.65
75505;BME280;64085;54.974;73.410;2023-04-01T05:07:50;102617.66;;;28.12;6.72
75505;BME280;64085;54.974;73.410;2023-04-01T05:10:16;102619.19;;;29.26;6.62
75505;BME280;64085;54.974;73.410;2023-04-01T05:12:42;102614.81;;;30.45;5.52
75505;BME280;64085;54.974;73.410;2023-04-01T05:15:08;102611.16;;;30.45;5.54
75505;BME280;64085;54.974;73.410;2023-04-01T05:17:34;102601.31;;;31.78;5.55
75505;BME280;64085;54.974;73.410;2023-04-01T05:20:00;102614.16;;;31.37;5.33
75505;BME280;64085;54.974;73.410;2023-04-01T05:22:26;102610.00;;;30.62;5.92
75505;BME280;64085;54.974;73.410;2023-04-01T05:24:52;102602.09;;;31.46;5.56
75505;BME280;64085;54.974;73.410;2023-04-01T05:27:18;102603.09;;;32.04;5.25
75505;BME280;64085;54.974;73.410;2023-04-01T05:29:43;102580.19;;;29.23;6.07
75505;BME280;64085;54.974;73.410;2023-04-01T05:32:09;102593.34;;;26.71;7.63
75505;BME280;64085;54.974;73.410;2023-04-01T05:34:35;102590.63;;;23.94;9.47
75505;BME280;64085;54.974;73.410;2023-04-01T05:37:01;102592.03;;;27.70;7.15
75505;BME280;64085;54.974;73.410;2023-04-01T05:39:26;102590.78;;;27.05;7.16
75505;BME280;64085;54.974;73.410;2023-04-01T05:41:52;102569.72;;;29.70;5.90
75505;BME280;64085;54.974;73.410;2023-04-01T05:44:17;102584.59;;;27.28;7.46
75505;BME280;64085;54.974;73.410;2023-04-01T05:46:43;102581.63;;;23.03;9.15
75505;BME280;64085;54.974;73.410;2023-04-01T05:49:09;102576.69;;;22.36;10.05
75505;BME280;64085;54.974;73.410;2023-04-01T05:51:35;102557.41;;;25.15;8.27
75505;BME280;64085;54.974;73.410;2023-04-01T05:54:01;102568.00;;;27.19;7.21
75505;BME280;64085;54.974;73.410;2023-04-01T05:56:26;102576.38;;;29.06;6.35
75505;BME280;64085;54.974;73.410;2023-04-01T05:58:53;102574.16;;;27.70;7.60
75505;BME280;64085;54.974;73.410;2023-04-01T06:01:20;102576.81;;;29.31;6.44
75505;BME280;64085;54.974;73.410;2023-04-01T06:03:46;102593.41;;;27.96;7.22
75505;BME280;64085;54.974;73.410;2023-04-01T06:06:14;102575.25;;;25.97;8.31
75505;BME280;64085;54.974;73.410;2023-04-01T06:08:41;102575.94;;;21.86;11.17
75505;BME280;64085;54.974;73.410;2023-04-01T06:16:58;102590.69;;;17.64;14.56
75505;BME280;64085;54.974;73.410;2023-04-01T06:20:11;102558.91;;;23.63;10.13
75505;BME280;64085;54.974;73.410;2023-04-01T06:23:05;102581.28;;;23.08;10.42
75505;BME280;64085;54.974;73.410;2023-04-01T06:33:57;102556.84;;;21.11;11.89
75505;BME280;64085;54.974;73.410;2023-04-01T06:39:39;102568.94;;;16.50;14.94
75505;BME280;64085;54.974;73.410;2023-04-01T06:47:29;102563.72;;;10.21;22.76
75505;BME280;64085;54.974;73.410;2023-04-01T06:50:24;102585.66;;;8.72;25.46
75505;BME280;64085;54.974;73.410;2023-04-01T06:55:34;102570.97;;;8.32;25.98
75505;BME280;64085;54.974;73.410;2023-04-01T06:58:05;102564.50;;;8.08;26.24
75505;BME280;64085;54.974;73.410;2023-04-01T07:00:39;102564.13;;;8.25;26.23
75505;BME280;64085;54.974;73.410;2023-04-01T07:06:03;102567.00;;;7.99;27.20
75505;BME280;64085;54.974;73.410;2023-04-01T07:08:33;102547.94;;;7.13;28.14
75505;BME280;64085;54.974;73.410;2023-04-01T07:11:04;102549.31;;;6.80;28.55
75505;BME280;64085;54.974;73.410;2023-04-01T07:16:37;102476.97;;;7.25;27.73
75505;BME280;64085;54.974;73.410;2023-04-01T07:19:11;102556.81;;;7.95;27.56
75505;BME280;64085;54.974;73.410;2023-04-01T07:21:44;102546.97;;;7.73;28.09
75505;BME280;64085;54.974;73.410;2023-04-01T07:24:27;102540.44;;;6.27;31.49
75505;BME280;64085;54.974;73.410;2023-04-01T07:26:56;102547.66;;;6.48;30.65
75505;BME280;64085;54.974;73.410;2023-04-01T07:29:23;102547.59;;;6.38;29.87
75505;BME280;64085;54.974;73.410;2023-04-01T07:40:13;102544.25;;;5.63;29.29
75505;BME280;64085;54.974;73.410;2023-04-01T07:42:45;102547.69;;;5.38;32.25
75505;BME280;64085;54.974;73.410;2023-04-01T07:45:34;102533.91;;;5.28;32.87
75505;BME280;64085;54.974;73.410;2023-04-01T07:56:55;102514.34;;;6.24;30.71
75505;BME280;64085;54.974;73.410;2023-04-01T08:05:11;102540.56;;;5.37;31.78
75505;BME280;64085;54.974;73.410;2023-04-01T08:10:36;102520.34;;;5.06;32.17
75505;BME280;64085;54.974;73.410;2023-04-01T08:13:20;102541.47;;;4.46;32.51
75505;BME280;64085;54.974;73.410;2023-04-01T08:21:21;102498.88;;;4.07;32.85
75505;BME280;64085;54.974;73.410;2023-04-01T08:23:52;102504.06;;;3.59;33.40
75505;BME280;64085;54.974;73.410;2023-04-01T08:26:32;102498.81;;;4.02;33.83
75505;BME280;64085;54.974;73.410;2023-04-01T08:29:12;102483.81;;;3.60;33.56
75505;BME280;64085;54.974;73.410;2023-04-01T08:34:40;102508.53;;;3.87;33.30
75505;BME280;64085;54.974;73.410;2023-04-01T08:37:14;102494.38;;;3.52;34.19
75505;BME280;64085;54.974;73.410;2023-04-01T08:39:58;102480.63;;;4.12;33.33
75505;BME280;64085;54.974;73.410;2023-04-01T08:45:38;102493.16;;;3.86;34.95
75505;BME280;64085;54.974;73.410;2023-04-01T08:48:19;102477.91;;;4.44;34.37
75505;BME280;64085;54.974;73.410;2023-04-01T08:51:20;102456.47;;;5.05;33.30
75505;BME280;64085;54.974;73.410;2023-04-01T08:54:11;102451.78;;;5.58;31.89
75505;BME280;64085;54.974;73.410;2023-04-01T08:57:07;102471.22;;;4.30;34.41
75505;BME280;64085;54.974;73.410;2023-04-01T09:10:39;102478.84;;;4.01;35.28
75505;BME280;64085;54.974;73.410;2023-04-01T09:13:30;102449.34;;;4.35;35.17
75505;BME280;64085;54.974;73.410;2023-04-01T09:22:05;102473.34;;;3.74;35.27
75505;BME280;64085;54.974;73.410;2023-04-01T09:24:39;102431.03;;;3.82;35.96
75505;BME280;64085;54.974;73.410;2023-04-01T09:27:31;102464.03;;;4.56;34.44
75505;BME280;64085;54.974;73.410;2023-04-01T09:36:18;102456.88;;;4.87;33.52
75505;BME280;64085;54.974;73.410;2023-04-01T09:39:04;102447.25;;;5.22;33.05
75505;BME280;64085;54.974;73.410;2023-04-01T09:44:34;102421.06;;;5.04;32.78
75505;BME280;64085;54.974;73.410;2023-04-01T09:52:20;102426.47;;;3.92;35.39
75505;BME280;64085;54.974;73.410;2023-04-01T10:25:11;102412.53;;;3.94;35.96
75505;BME280;64085;54.974;73.410;2023-04-01T10:27:55;102434.19;;;4.22;35.92
75505;BME280;64085;54.974;73.410;2023-04-01T10:33:46;102433.13;;;3.53;36.30
75505;BME280;64085;54.974;73.410;2023-04-01T10:38:51;102422.28;;;4.44;34.53
75505;BME280;64085;54.974;73.410;2023-04-01T11:03:55;102397.56;;;5.18;33.22
75505;BME280;64085;54.974;73.410;2023-04-01T11:29:51;102421.66;;;3.78;39.46
75505;BME280;64085;54.974;73.410;2023-04-01T11:38:22;102390.63;;;3.67;39.52
75505;BME280;64085;54.974;73.410;2023-04-01T11:43:34;102402.03;;;3.59;39.15
75505;BME280;64085;54.974;73.410;2023-04-01T11:46:12;102373.34;;;4.15;38.33
75505;BME280;64085;54.974;73.410;2023-04-01T12:02:56;102384.19;;;4.05;38.67
75505;BME280;64085;54.974;73.410;2023-04-01T12:08:55;102383.03;;;3.47;39.75
75505;BME280;64085;54.974;73.410;2023-04-01T12:14:37;102384.50;;;3.82;38.31
75505;BME280;64085;54.974;73.410;2023-04-01T12:20:33;102377.47;;;4.55;37.35
75505;BME280;64085;54.974;73.410;2023-04-01T12:43:15;102354.59;;;3.70;40.35
75505;BME280;64085;54.974;73.410;2023-04-01T12:48:43;102373.66;;;3.38;41.35
75505;BME280;64085;54.974;73.410;2023-04-01T12:54:45;102380.56;;;3.46;41.56
75505;BME280;64085;54.974;73.410;2023-04-01T13:00:03;102349.09;;;2.99;42.35
75505;BME280;64085;54.974;73.410;2023-04-01T13:16:54;102332.00;;;3.85;41.35
75505;BME280;64085;54.974;73.410;2023-04-01T13:27:44;102324.63;;;3.09;42.51
75505;BME280;64085;54.974;73.410;2023-04-01T13:33:38;102323.09;;;3.41;42.03
75505;BME280;64085;54.974;73.410;2023-04-01T13:36:36;102327.34;;;2.66;43.99
75505;BME280;64085;54.974;73.410;2023-04-01T13:42:16;102325.91;;;3.02;43.57
75505;BME280;64085;54.974;73.410;2023-04-01T13:50:23;102309.28;;;3.03;44.00
75505;BME280;64085;54.974;73.410;2023-04-01T13:53:10;102313.41;;;3.06;43.19
75505;BME280;64085;54.974;73.410;2023-04-01T13:55:55;102301.97;;;2.48;44.80
75505;BME280;64085;54.974;73.410;2023-04-01T14:03:32;102296.88;;;2.35;45.69
75505;BME280;64085;54.974;73.410;2023-04-01T14:28:18;102292.59;;;2.06;47.20
75505;BME280;64085;54.974;73.410;2023-04-01T14:34:09;102298.47;;;1.81;47.81
75505;BME280;64085;54.974;73.410;2023-04-01T14:39:34;102268.16;;;2.11;46.84
75505;BME280;64085;54.974;73.410;2023-04-01T14:44:58;102282.25;;;2.08;46.90
75505;BME280;64085;54.974;73.410;2023-04-01T14:47:53;102269.28;;;2.15;45.86
75505;BME280;64085;54.974;73.410;2023-04-01T14:50:39;102277.97;;;2.12;46.05
75505;BME280;64085;54.974;73.410;2023-04-01T14:55:52;102276.22;;;2.22;45.70
75505;BME280;64085;54.974;73.410;2023-04-01T14:58:20;102262.06;;;2.25;45.19
75505;BME280;64085;54.974;73.410;2023-04-01T15:03:58;102265.50;;;1.99;45.26
75505;BME280;64085;54.974;73.410;2023-04-01T15:23:27;102260.44;;;1.74;45.35
75505;BME280;64085;54.974;73.410;2023-04-01T15:31:40;102243.50;;;2.06;44.88
75505;BME280;64085;54.974;73.410;2023-04-01T15:37:02;102239.78;;;2.12;44.49
75505;BME280;64085;54.974;73.410;2023-04-01T15:50:56;102228.94;;;2.17;42.98
75505;BME280;64085;54.974;73.410;2023-04-01T15:53:53;102233.59;;;2.00;43.28
75505;BME280;64085;54.974;73.410;2023-04-01T16:04:59;102234.50;;;1.88;42.76
75505;BME280;64085;54.974;73.410;2023-04-01T16:15:57;102237.66;;;1.97;42.70
75505;BME280;64085;54.974;73.410;2023-04-01T16:18:32;102220.75;;;2.17;42.46
75505;BME280;64085;54.974;73.410;2023-04-01T16:21:06;102231.31;;;2.30;42.55
75505;BME280;64085;54.974;73.410;2023-04-01T16:24:09;102225.16;;;2.01;42.94
75505;BME280;64085;54.974;73.410;2023-04-01T16:29:24;102241.28;;;2.03;42.74
75505;BME280;64085;54.974;73.410;2023-04-01T16:32:19;102219.28;;;1.92;43.50
75505;BME280;64085;54.974;73.410;2023-04-01T16:35:11;102244.09;;;1.74;43.49
75505;BME280;64085;54.974;73.410;2023-04-01T16:43:28;102249.91;;;1.78;43.42
75505;BME280;64085;54.974;73.410;2023-04-01T16:46:16;102248.69;;;2.24;43.00
75505;BME280;64085;54.974;73.410;2023-04-01T16:51:48;102251.94;;;1.87;44.14
75505;BME280;64085;54.974;73.410;2023-04-01T16:57:30;102253.84;;;1.70;43.61
75505;BME280;64085;54.974;73.410;2023-04-01T17:00:15;102241.03;;;2.04;43.39
75505;BME280;64085;54.974;73.410;2023-04-01T17:03:13;102229.88;;;1.89;43.87
75505;BME280;64085;54.974;73.410;2023-04-01T17:09:01;102249.38;;;1.64;44.25
75505;BME280;64085;54.974;73.410;2023-04-01T17:11:37;102260.88;;;2.00;43.88
75505;BME280;64085;54.974;73.410;2023-04-01T17:19:37;102265.75;;;1.81;44.03
75505;BME280;64085;54.974;73.410;2023-04-01T17:22:48;102222.38;;;1.17;44.63
75505;BME280;64085;54.974;73.410;2023-04-01T17:25:38;102265.91;;;1.74;44.08
75505;BME280;64085;54.974;73.410;2023-04-01T17:28:31;102258.63;;;1.63;45.06
75505;BME280;64085;54.974;73.410;2023-04-01T17:36:27;102235.56;;;1.37;46.27
75505;BME280;64085;54.974;73.410;2023-04-01T17:41:57;102249.47;;;1.24;46.82
75505;BME280;64085;54.974;73.410;2023-04-01T17:50:21;102227.00;;;1.17;46.27
75505;BME280;64085;54.974;73.410;2023-04-01T18:01:07;102196.34;;;0.93;45.84
75505;BME280;64085;54.974;73.410;2023-04-01T18:06:18;102246.13;;;1.33;45.76
75505;BME280;64085;54.974;73.410;2023-04-01T18:09:40;102229.97;;;1.15;45.72
75505;BME280;64085;54.974;73.410;2023-04-01T18:12:27;102229.03;;;1.38;45.49
75505;BME280;64085;54.974;73.410;2023-04-01T18:21:04;102157.84;;;0.72;45.64
75505;BME280;64085;54.974;73.410;2023-04-01T18:23:47;102218.56;;;1.63;44.86
75505;BME280;64085;54.974;73.410;2023-04-01T18:26:33;102212.50;;;1.11;46.14
75505;BME280;64085;54.974;73.410;2023-04-01T18:29:02;102204.19;;;1.51;45.13
75505;BME280;64085;54.974;73.410;2023-04-01T18:31:39;102218.63;;;1.18;45.40
75505;BME280;64085;54.974;73.410;2023-04-01T18:34:40;102207.34;;;1.60;44.56
75505;BME280;64085;54.974;73.410;2023-04-01T18:37:22;102163.53;;;1.33;44.78
75505;BME280;64085;54.974;73.410;2023-04-01T18:45:33;102171.44;;;1.18;45.19
75505;BME280;64085;54.974;73.410;2023-04-01T18:50:50;102196.59;;;1.36;44.91
75505;BME280;64085;54.974;73.410;2023-04-01T18:53:54;102184.09;;;1.40;44.55
75505;BME280;64085;54.974;73.410;2023-04-01T18:58:59;102172.06;;;1.20;44.27
75505;BME280;64085;54.974;73.410;2023-04-01T19:04:19;102196.88;;;1.06;44.92
75505;BME280;64085;54.974;73.410;2023-04-01T19:06:52;102188.97;;;1.22;44.31
75505;BME280;64085;54.974;73.410;2023-04-01T19:09:24;102134.88;;;0.97;44.16
75505;BME280;64085;54.974;73.410;2023-04-01T19:17:58;102171.38;;;1.12;44.53
75505;BME280;64085;54.974;73.410;2023-04-01T19:20:30;102180.28;;;1.08;44.67
75505;BME280;64085;54.974;73.410;2023-04-01T19:25:55;102187.84;;;0.89;45.27
75505;BME280;64085;54.974;73.410;2023-04-01T19:31:51;102147.03;;;1.23;44.32
75505;BME280;64085;54.974;73.410;2023-04-01T19:37:32;102162.38;;;1.12;44.46
75505;BME280;64085;54.974;73.410;2023-04-01T19:45:55;102173.34;;;1.17;44.96
75505;BME280;64085;54.974;73.410;2023-04-01T19:51:37;102154.34;;;0.89;44.82
75505;BME280;64085;54.974;73.410;2023-04-01T20:08:24;102144.88;;;1.25;44.38
75505;BME280;64085;54.974;73.410;2023-04-01T20:16:15;102146.25;;;0.65;44.81
75505;BME280;64085;54.974;73.410;2023-04-01T20:19:00;102135.97;;;1.12;44.83
75505;BME280;64085;54.974;73.410;2023-04-01T20:21:36;102132.78;;;0.87;44.54
75505;BME280;64085;54.974;73.410;2023-04-01T20:24:19;102127.94;;;0.89;44.87
75505;BME280;64085;54.974;73.410;2023-04-01T20:27:03;102123.28;;;1.18;43.78
75505;BME280;64085;54.974;73.410;2023-04-01T20:32:50;102141.16;;;0.97;44.17
75505;BME280;64085;54.974;73.410;2023-04-01T20:35:33;102108.22;;;0.99;44.26
75505;BME280;64085;54.974;73.410;2023-04-01T20:41:07;102129.41;;;0.80;44.61
75505;BME280;64085;54.974;73.410;2023-04-01T20:50:04;102100.81;;;1.11;43.99
75505;BME280;64085;54.974;73.410;2023-04-01T20:52:41;102086.09;;;0.78;44.89
75505;BME280;64085;54.974;73.410;2023-04-01T20:55:26;102071.84;;;0.43;46.16
75505;BME280;64085;54.974;73.410;2023-04-01T20:58:12;102106.72;;;0.91;44.95
75505;BME280;64085;54.974;73.410;2023-04-01T21:20:26;102092.13;;;0.97;44.73
75505;BME280;64085;54.974;73.410;2023-04-01T21:26:47;102110.56;;;0.62;45.09
75505;BME280;64085;54.974;73.410;2023-04-01T21:44:46;102105.63;;;0.47;45.82
75505;BME280;64085;54.974;73.410;2023-04-01T21:50:12;102100.53;;;0.50;45.59
75505;BME280;64085;54.974;73.410;2023-04-01T21:55:56;102100.59;;;0.84;45.06
75505;BME280;64085;54.974;73.410;2023-04-01T22:09:34;102104.31;;;0.78;45.42
75505;BME280;64085;54.974;73.410;2023-04-01T22:12:26;102112.53;;;0.38;46.42
75505;BME280;64085;54.974;73.410;2023-04-01T22:15:01;102104.94;;;0.51;46.28
75505;BME280;64085;54.974;73.410;2023-04-01T22:17:43;102103.25;;;0.50;46.20
75505;BME280;64085;54.974;73.410;2023-04-01T22:20:20;102118.22;;;0.65;46.54
75505;BME280;64085;54.974;73.410;2023-04-01T22:23:13;102114.28;;;0.44;46.60
75505;BME280;64085;54.974;73.410;2023-04-01T22:26:02;102114.81;;;0.29;47.41
75505;BME280;64085;54.974;73.410;2023-04-01T22:28:42;102102.81;;;0.42;46.38
75505;BME280;64085;54.974;73.410;2023-04-01T22:31:14;102111.09;;;0.47;46.91
75505;BME280;64085;54.974;73.410;2023-04-01T22:34:09;102110.47;;;0.73;45.72
75505;BME280;64085;54.974;73.410;2023-04-01T22:44:35;102040.75;;;-0.02;45.64
75505;BME280;64085;54.974;73.410;2023-04-01T22:47:19;102132.28;;;0.45;45.84
75505;BME280;64085;54.974;73.410;2023-04-01T22:50:25;102128.47;;;0.46;45.98
75505;BME280;64085;54.974;73.410;2023-04-01T22:53:07;102119.94;;;0.25;46.63
75505;BME280;64085;54.974;73.410;2023-04-01T22:55:40;102120.44;;;-0.01;47.80
75505;BME280;64085;54.974;73.410;2023-04-01T22:58:12;102120.66;;;0.09;47.09
75505;BME280;64085;54.974;73.410;2023-04-01T23:00:52;102120.91;;;0.48;45.50
75505;BME280;64085;54.974;73.410;2023-04-01T23:03:25;102115.69;;;0.46;45.54
75505;BME280;64085;54.974;73.410;2023-04-01T23:05:56;102122.81;;;-0.05;46.60